sensor_id;sensor_type;location;lat;lon;timestamp;pressure;altitude;pressure_sealevel;temperature
15701;BMP180;7950;42.744;23.174;2023-04-03T00:01:46;93758.34;;;6.31
15701;BMP180;7950;42.744;23.174;2023-04-03T00:04:14;93754.84;;;6.21
15701;BMP180;7950;42.744;23.174;2023-04-03T00:06:43;93759.34;;;6.09
15701;BMP180;7950;42.744;23.174;2023-04-03T00:09:38;93762.91;;;6.03
15701;BMP180;7950;42.744;23.174;2023-04-03T00:12:06;93750.50;;;5.77
15701;BMP180;7950;42.744;23.174;2023-04-03T00:14:35;93756.03;;;5.80
15701;BMP180;7950;42.744;23.174;2023-04-03T00:17:03;93750.72;;;5.75
15701;BMP180;7950;42.744;23.174;2023-04-03T00:19:32;93761.06;;;5.70
15701;BMP180;7950;42.744;23.174;2023-04-03T00:22:01;93748.13;;;5.75
15701;BMP180;7950;42.744;23.174;2023-04-03T00:24:29;93754.66;;;5.78
15701;BMP180;7950;42.744;23.174;2023-04-03T00:26:59;93749.94;;;5.75
15701;BMP180;7950;42.744;23.174;2023-04-03T00:29:28;93759.28;;;5.59
15701;BMP180;7950;42.744;23.174;2023-04-03T00:31:56;93760.78;;;5.55
15701;BMP180;7950;42.744;23.174;2023-04-03T00:34:24;93753.63;;;5.62
15701;BMP180;7950;42.744;23.174;2023-04-03T00:36:53;93751.50;;;5.59
15701;BMP180;7950;42.744;23.174;2023-04-03T00:39:22;93762.31;;;5.68
15701;BMP180;7950;42.744;23.174;2023-04-03T00:41:50;93761.13;;;5.59
15701;BMP180;7950;42.744;23.174;2023-04-03T00:45:21;93760.47;;;5.52
15701;BMP180;7950;42.744;23.174;2023-04-03T00:47:58;93760.09;;;5.32
15701;BMP180;7950;42.744;23.174;2023-04-03T00:50:29;93752.38;;;5.20
15701;BMP180;7950;42.744;23.174;2023-04-03T00:52:59;93762.59;;;5.10
15701;BMP180;7950;42.744;23.174;2023-04-03T00:55:28;93761.59;;;5.00
15701;BMP180;7950;42.744;23.174;2023-04-03T00:57:58;93769.72;;;5.03
15701;BMP180;7950;42.744;23.174;2023-04-03T01:00:30;93758.13;;;4.94
15701;BMP180;7950;42.744;23.174;2023-04-03T01:02:58;93760.16;;;4.92
15701;BMP180;7950;42.744;23.174;2023-04-03T01:05:27;93767.84;;;4.99
15701;BMP180;7950;42.744;23.174;2023-04-03T01:07:58;93769.97;;;5.02
15701;BMP180;7950;42.744;23.174;2023-04-03T01:10:26;93769.72;;;5.03
15701;BMP180;7950;42.744;23.174;2023-04-03T01:12:55;93767.56;;;5.12
15701;BMP180;7950;42.744;23.174;2023-04-03T01:15:27;93760.66;;;5.17
15701;BMP180;7950;42.744;23.174;2023-04-03T01:17:59;93756.56;;;5.21
15701;BMP180;7950;42.744;23.174;2023-04-03T01:21:23;93759.56;;;5.30
15701;BMP180;7950;42.744;23.174;2023-04-03T01:24:21;93759.06;;;5.44
15701;BMP180;7950;42.744;23.174;2023-04-03T01:26:50;93766.44;;;5.36
15701;BMP180;7950;42.744;23.174;2023-04-03T01:29:18;93766.91;;;5.33
15701;BMP180;7950;42.744;23.174;2023-04-03T01:31:52;93776.34;;;5.22
15701;BMP180;7950;42.744;23.174;2023-04-03T01:34:29;93769.94;;;5.13
15701;BMP180;7950;42.744;23.174;2023-04-03T01:36:57;93777.38;;;5.10
15701;BMP180;7950;42.744;23.174;2023-04-03T01:39:26;93765.91;;;5.06
15701;BMP180;7950;42.744;23.174;2023-04-03T01:41:54;93775.50;;;5.05
15701;BMP180;7950;42.744;23.174;2023-04-03T01:44:23;93770.06;;;5.07
15701;BMP180;7950;42.744;23.174;2023-04-03T01:46:53;93776.28;;;5.06
15701;BMP180;7950;42.744;23.174;2023-04-03T01:49:21;93771.56;;;5.03
15701;BMP180;7950;42.744;23.174;2023-04-03T01:51:50;93764.13;;;4.95
15701;BMP180;7950;42.744;23.174;2023-04-03T01:54:18;93763.00;;;4.91
15701;BMP180;7950;42.744;23.174;2023-04-03T01:56:47;93767.97;;;4.92
15701;BMP180;7950;42.744;23.174;2023-04-03T01:59:15;93757.34;;;4.94
15701;BMP180;7950;42.744;23.174;2023-04-03T02:01:45;93759.75;;;4.84
15701;BMP180;7950;42.744;23.174;2023-04-03T02:04:15;93757.59;;;4.81
15701;BMP180;7950;42.744;23.174;2023-04-03T02:06:43;93752.88;;;4.78
15701;BMP180;7950;42.744;23.174;2023-04-03T02:09:12;93755.69;;;4.76
15701;BMP180;7950;42.744;23.174;2023-04-03T02:11:41;93752.41;;;4.81
15701;BMP180;7950;42.744;23.174;2023-04-03T02:14:09;93760.44;;;4.79
15701;BMP180;7950;42.744;23.174;2023-04-03T02:16:38;93753.97;;;4.82
15701;BMP180;7950;42.744;23.174;2023-04-03T02:19:07;93746.28;;;4.87
15701;BMP180;7950;42.744;23.174;2023-04-03T02:21:37;93747.84;;;4.88
15701;BMP180;7950;42.744;23.174;2023-04-03T02:24:06;93739.88;;;4.78
15701;BMP180;7950;42.744;23.174;2023-04-03T02:26:34;93740.44;;;4.80
15701;BMP180;7950;42.744;23.174;2023-04-03T02:29:03;93728.44;;;4.79
15701;BMP180;7950;42.744;23.174;2023-04-03T02:31:32;93741.84;;;4.71
15701;BMP180;7950;42.744;23.174;2023-04-03T02:34:00;93741.56;;;4.84
15701;BMP180;7950;42.744;23.174;2023-04-03T02:36:29;93741.00;;;4.82
15701;BMP180;7950;42.744;23.174;2023-04-03T02:39:00;93731.91;;;4.68
15701;BMP180;7950;42.744;23.174;2023-04-03T02:41:29;93727.16;;;4.65
15701;BMP180;7950;42.744;23.174;2023-04-03T02:44:03;93735.09;;;4.47
15701;BMP180;7950;42.744;23.174;2023-04-03T02:46:33;93736.22;;;4.51
15701;BMP180;7950;42.744;23.174;2023-04-03T02:49:02;93729.81;;;4.42
15701;BMP180;7950;42.744;23.174;2023-04-03T02:51:31;93731.47;;;4.48
15701;BMP180;7950;42.744;23.174;2023-04-03T02:54:25;93728.00;;;4.42
15701;BMP180;7950;42.744;23.174;2023-04-03T02:56:56;93726.75;;;4.45
15701;BMP180;7950;42.744;23.174;2023-04-03T02:59:24;93733.53;;;4.46
15701;BMP180;7950;42.744;23.174;2023-04-03T03:01:53;93720.19;;;4.54
15701;BMP180;7950;42.744;23.174;2023-04-03T03:04:23;93729.56;;;4.55
15701;BMP180;7950;42.744;23.174;2023-04-03T03:06:51;93724.00;;;4.63
15701;BMP180;7950;42.744;23.174;2023-04-03T03:09:22;93716.97;;;4.75
15701;BMP180;7950;42.744;23.174;2023-04-03T03:11:52;93720.97;;;4.94
15701;BMP180;7950;42.744;23.174;2023-04-03T03:14:20;93722.06;;;4.98
15701;BMP180;7950;42.744;23.174;2023-04-03T03:16:48;93721.88;;;4.88
15701;BMP180;7950;42.744;23.174;2023-04-03T03:19:39;93722.00;;;4.81
15701;BMP180;7950;42.744;23.174;2023-04-03T03:22:07;93725.09;;;4.78
15701;BMP180;7950;42.744;23.174;2023-04-03T03:24:36;93714.25;;;4.70
15701;BMP180;7950;42.744;23.174;2023-04-03T03:27:06;93714.38;;;4.63
15701;BMP180;7950;42.744;23.174;2023-04-03T03:29:34;93718.00;;;4.62
15701;BMP180;7950;42.744;23.174;2023-04-03T03:32:03;93721.31;;;4.58
15701;BMP180;7950;42.744;23.174;2023-04-03T03:34:32;93723.31;;;4.56
15701;BMP180;7950;42.744;23.174;2023-04-03T03:37:01;93729.56;;;4.43
15701;BMP180;7950;42.744;23.174;2023-04-03T03:39:30;93726.19;;;4.31
15701;BMP180;7950;42.744;23.174;2023-04-03T03:41:58;93727.44;;;4.29
15701;BMP180;7950;42.744;23.174;2023-04-03T03:44:28;93733.53;;;4.34
15701;BMP180;7950;42.744;23.174;2023-04-03T03:46:57;93732.75;;;4.34
15701;BMP180;7950;42.744;23.174;2023-04-03T03:49:25;93744.50;;;4.25
15701;BMP180;7950;42.744;23.174;2023-04-03T03:51:54;93733.47;;;4.18
15701;BMP180;7950;42.744;23.174;2023-04-03T03:54:22;93737.84;;;4.17
15701;BMP180;7950;42.744;23.174;2023-04-03T03:56:51;93737.53;;;4.14
15701;BMP180;7950;42.744;23.174;2023-04-03T03:59:19;93734.94;;;4.14
15701;BMP180;7950;42.744;23.174;2023-04-03T04:01:49;93742.59;;;4.09
15701;BMP180;7950;42.744;23.174;2023-04-03T04:04:18;93741.00;;;4.08
15701;BMP180;7950;42.744;23.174;2023-04-03T04:06:47;93735.47;;;4.04
15701;BMP180;7950;42.744;23.174;2023-04-03T04:09:40;93736.28;;;4.05
15701;BMP180;7950;42.744;23.174;2023-04-03T04:12:08;93734.13;;;4.13
15701;BMP180;7950;42.744;23.174;2023-04-03T04:14:37;93735.81;;;3.96
15701;BMP180;7950;42.744;23.174;2023-04-03T04:17:07;93742.25;;;3.94
15701;BMP180;7950;42.744;23.174;2023-04-03T04:19:35;93736.47;;;3.69
15701;BMP180;7950;42.744;23.174;2023-04-03T04:22:04;93742.94;;;3.78
15701;BMP180;7950;42.744;23.174;2023-04-03T04:24:32;93751.50;;;3.78
15701;BMP180;7950;42.744;23.174;2023-04-03T04:27:04;93761.31;;;3.88
15701;BMP180;7950;42.744;23.174;2023-04-03T04:29:32;93767.88;;;3.90
15701;BMP180;7950;42.744;23.174;2023-04-03T04:32:04;93766.50;;;3.88
15701;BMP180;7950;42.744;23.174;2023-04-03T04:34:34;93765.16;;;3.85
15701;BMP180;7950;42.744;23.174;2023-04-03T04:37:02;93762.56;;;3.85
15701;BMP180;7950;42.744;23.174;2023-04-03T04:39:31;93765.28;;;3.90
15701;BMP180;7950;42.744;23.174;2023-04-03T04:41:59;93764.47;;;3.90
15701;BMP180;7950;42.744;23.174;2023-04-03T04:44:28;93783.53;;;3.84
15701;BMP180;7950;42.744;23.174;2023-04-03T04:46:56;93765.81;;;4.04
15701;BMP180;7950;42.744;23.174;2023-04-03T04:49:25;93769.00;;;4.17
15701;BMP180;7950;42.744;23.174;2023-04-03T04:51:55;93770.13;;;4.10
15701;BMP180;7950;42.744;23.174;2023-04-03T04:54:23;93789.44;;;4.02
15701;BMP180;7950;42.744;23.174;2023-04-03T04:56:52;93788.41;;;4.15
15701;BMP180;7950;42.744;23.174;2023-04-03T04:59:21;93792.34;;;4.06
15701;BMP180;7950;42.744;23.174;2023-04-03T05:01:49;93797.53;;;4.06
15701;BMP180;7950;42.744;23.174;2023-04-03T05:04:18;93790.78;;;4.16
15701;BMP180;7950;42.744;23.174;2023-04-03T05:06:46;93792.91;;;4.19
15701;BMP180;7950;42.744;23.174;2023-04-03T05:09:16;93798.56;;;4.28
15701;BMP180;7950;42.744;23.174;2023-04-03T05:11:47;93788.19;;;4.28
15701;BMP180;7950;42.744;23.174;2023-04-03T05:14:16;93797.66;;;4.34
15701;BMP180;7950;42.744;23.174;2023-04-03T05:16:44;93793.38;;;4.28
15701;BMP180;7950;42.744;23.174;2023-04-03T05:19:13;93801.94;;;4.40
15701;BMP180;7950;42.744;23.174;2023-04-03T05:21:41;93805.88;;;4.54
15701;BMP180;7950;42.744;23.174;2023-04-03T05:24:10;93808.47;;;4.65
15701;BMP180;7950;42.744;23.174;2023-04-03T05:26:40;93808.66;;;4.75
15701;BMP180;7950;42.744;23.174;2023-04-03T05:29:09;93808.25;;;4.67
15701;BMP180;7950;42.744;23.174;2023-04-03T05:31:52;93805.16;;;4.70
15701;BMP180;7950;42.744;23.174;2023-04-03T05:34:21;93809.56;;;4.81
15701;BMP180;7950;42.744;23.174;2023-04-03T05:36:50;93800.81;;;4.98
15701;BMP180;7950;42.744;23.174;2023-04-03T05:39:18;93797.63;;;5.08
15701;BMP180;7950;42.744;23.174;2023-04-03T05:41:48;93803.25;;;5.16
15701;BMP180;7950;42.744;23.174;2023-04-03T05:44:17;93804.31;;;5.32
15701;BMP180;7950;42.744;23.174;2023-04-03T05:46:45;93802.56;;;5.49
15701;BMP180;7950;42.744;23.174;2023-04-03T05:49:14;93803.59;;;5.64
15701;BMP180;7950;42.744;23.174;2023-04-03T05:51:43;93804.03;;;5.73
15701;BMP180;7950;42.744;23.174;2023-04-03T05:54:18;93804.06;;;5.89
15701;BMP180;7950;42.744;23.174;2023-04-03T05:56:48;93793.41;;;6.07
15701;BMP180;7950;42.744;23.174;2023-04-03T05:59:42;93798.06;;;6.22
15701;BMP180;7950;42.744;23.174;2023-04-03T06:02:13;93798.53;;;6.35
15701;BMP180;7950;42.744;23.174;2023-04-03T06:04:42;93790.13;;;6.50
15701;BMP180;7950;42.744;23.174;2023-04-03T06:07:13;93788.28;;;6.67
15701;BMP180;7950;42.744;23.174;2023-04-03T06:09:44;93778.56;;;6.79
15701;BMP180;7950;42.744;23.174;2023-04-03T06:12:14;93773.75;;;6.92
15701;BMP180;7950;42.744;23.174;2023-04-03T06:14:43;93771.53;;;7.01
15701;BMP180;7950;42.744;23.174;2023-04-03T06:17:12;93770.13;;;7.15
15701;BMP180;7950;42.744;23.174;2023-04-03T06:19:40;93764.03;;;7.31
15701;BMP180;7950;42.744;23.174;2023-04-03T06:22:09;93763.91;;;7.42
15701;BMP180;7950;42.744;23.174;2023-04-03T06:24:38;93761.66;;;7.56
15701;BMP180;7950;42.744;23.174;2023-04-03T06:27:08;93756.03;;;7.69
15701;BMP180;7950;42.744;23.174;2023-04-03T06:29:39;93769.19;;;7.79
15701;BMP180;7950;42.744;23.174;2023-04-03T06:32:07;93778.41;;;7.86
15701;BMP180;7950;42.744;23.174;2023-04-03T06:34:36;93775.59;;;7.93
15701;BMP180;7950;42.744;23.174;2023-04-03T06:37:05;93782.94;;;8.01
15701;BMP180;7950;42.744;23.174;2023-04-03T06:39:33;93773.88;;;8.08
15701;BMP180;7950;42.744;23.174;2023-04-03T06:42:02;93776.81;;;8.17
15701;BMP180;7950;42.744;23.174;2023-04-03T06:44:58;93770.16;;;8.31
15701;BMP180;7950;42.744;23.174;2023-04-03T06:47:27;93778.03;;;8.41
15701;BMP180;7950;42.744;23.174;2023-04-03T06:49:56;93776.03;;;8.53
15701;BMP180;7950;42.744;23.174;2023-04-03T06:52:25;93777.16;;;8.67
15701;BMP180;7950;42.744;23.174;2023-04-03T06:54:53;93768.63;;;8.81
15701;BMP180;7950;42.744;23.174;2023-04-03T06:57:24;93762.44;;;8.98
15701;BMP180;7950;42.744;23.174;2023-04-03T06:59:53;93767.97;;;9.11
15701;BMP180;7950;42.744;23.174;2023-04-03T07:02:24;93764.06;;;9.18
15701;BMP180;7950;42.744;23.174;2023-04-03T07:04:52;93772.72;;;9.29
15701;BMP180;7950;42.744;23.174;2023-04-03T07:07:21;93781.66;;;9.38
15701;BMP180;7950;42.744;23.174;2023-04-03T07:09:49;93784.81;;;9.45
15701;BMP180;7950;42.744;23.174;2023-04-03T07:12:18;93787.69;;;9.44
15701;BMP180;7950;42.744;23.174;2023-04-03T07:14:52;93791.13;;;9.49
15701;BMP180;7950;42.744;23.174;2023-04-03T07:17:22;93782.47;;;9.49
15701;BMP180;7950;42.744;23.174;2023-04-03T07:19:51;93778.03;;;9.44
15701;BMP180;7950;42.744;23.174;2023-04-03T07:22:20;93771.75;;;9.50
15701;BMP180;7950;42.744;23.174;2023-04-03T07:24:48;93767.56;;;9.44
15701;BMP180;7950;42.744;23.174;2023-04-03T07:27:16;93765.66;;;9.30
15701;BMP180;7950;42.744;23.174;2023-04-03T07:29:45;93772.50;;;9.36
15701;BMP180;7950;42.744;23.174;2023-04-03T07:32:19;93765.22;;;9.53
15701;BMP180;7950;42.744;23.174;2023-04-03T07:34:49;93767.59;;;9.69
15701;BMP180;7950;42.744;23.174;2023-04-03T07:37:18;93762.91;;;9.81
15701;BMP180;7950;42.744;23.174;2023-04-03T07:39:47;93754.28;;;10.06
15701;BMP180;7950;42.744;23.174;2023-04-03T07:42:24;93749.31;;;10.29
15701;BMP180;7950;42.744;23.174;2023-04-03T07:44:54;93750.06;;;10.50
15701;BMP180;7950;42.744;23.174;2023-04-03T07:47:23;93746.63;;;10.69
15701;BMP180;7950;42.744;23.174;2023-04-03T07:49:57;93740.78;;;10.87
15701;BMP180;7950;42.744;23.174;2023-04-03T07:52:26;93732.38;;;10.95
15701;BMP180;7950;42.744;23.174;2023-04-03T07:54:54;93725.22;;;11.11
15701;BMP180;7950;42.744;23.174;2023-04-03T07:57:22;93720.19;;;11.24
15701;BMP180;7950;42.744;23.174;2023-04-03T08:00:17;93723.78;;;11.38
15701;BMP180;7950;42.744;23.174;2023-04-03T08:02:51;93711.88;;;11.51
15701;BMP180;7950;42.744;23.174;2023-04-03T08:05:22;93704.50;;;11.63
15701;BMP180;7950;42.744;23.174;2023-04-03T08:08:17;93707.28;;;11.76
15701;BMP180;7950;42.744;23.174;2023-04-03T08:10:50;93708.25;;;11.85
15701;BMP180;7950;42.744;23.174;2023-04-03T08:13:19;93712.72;;;11.90
15701;BMP180;7950;42.744;23.174;2023-04-03T08:15:48;93715.84;;;11.92
15701;BMP180;7950;42.744;23.174;2023-04-03T08:18:17;93714.34;;;11.81
15701;BMP180;7950;42.744;23.174;2023-04-03T08:20:50;93712.53;;;11.76
15701;BMP180;7950;42.744;23.174;2023-04-03T08:23:18;93707.84;;;11.73
15701;BMP180;7950;42.744;23.174;2023-04-03T08:25:47;93705.22;;;11.73
15701;BMP180;7950;42.744;23.174;2023-04-03T08:28:20;93704.59;;;11.81
15701;BMP180;7950;42.744;23.174;2023-04-03T08:30:48;93706.38;;;11.91
15701;BMP180;7950;42.744;23.174;2023-04-03T08:33:18;93705.06;;;11.93
15701;BMP180;7950;42.744;23.174;2023-04-03T08:35:46;93703.84;;;11.81
15701;BMP180;7950;42.744;23.174;2023-04-03T08:38:16;93702.63;;;11.63
15701;BMP180;7950;42.744;23.174;2023-04-03T08:40:45;93701.41;;;11.46
15701;BMP180;7950;42.744;23.174;2023-04-03T08:43:34;93697.56;;;11.33
15701;BMP180;7950;42.744;23.174;2023-04-03T08:46:09;93699.72;;;11.21
15701;BMP180;7950;42.744;23.174;2023-04-03T08:48:41;93695.78;;;11.24
15701;BMP180;7950;42.744;23.174;2023-04-03T08:51:15;93697.72;;;11.03
15701;BMP180;7950;42.744;23.174;2023-04-03T08:53:55;93693.81;;;10.91
15701;BMP180;7950;42.744;23.174;2023-04-03T08:56:26;93688.84;;;10.89
15701;BMP180;7950;42.744;23.174;2023-04-03T08:58:58;93690.09;;;11.02
15701;BMP180;7950;42.744;23.174;2023-04-03T09:01:33;93679.56;;;11.12
15701;BMP180;7950;42.744;23.174;2023-04-03T09:04:10;93675.34;;;11.16
15701;BMP180;7950;42.744;23.174;2023-04-03T09:06:45;93674.25;;;11.27
15701;BMP180;7950;42.744;23.174;2023-04-03T09:09:31;93664.19;;;11.34
15701;BMP180;7950;42.744;23.174;2023-04-03T09:12:12;93668.38;;;11.35
15701;BMP180;7950;42.744;23.174;2023-04-03T09:14:50;93670.53;;;11.28
15701;BMP180;7950;42.744;23.174;2023-04-03T09:17:40;93671.31;;;11.33
15701;BMP180;7950;42.744;23.174;2023-04-03T09:20:21;93665.56;;;11.26
15701;BMP180;7950;42.744;23.174;2023-04-03T09:22:54;93662.25;;;11.49
15701;BMP180;7950;42.744;23.174;2023-04-03T09:25:28;93659.97;;;11.38
15701;BMP180;7950;42.744;23.174;2023-04-03T09:28:00;93654.88;;;11.56
15701;BMP180;7950;42.744;23.174;2023-04-03T09:30:30;93646.13;;;11.66
15701;BMP180;7950;42.744;23.174;2023-04-03T09:32:58;93641.63;;;11.71
15701;BMP180;7950;42.744;23.174;2023-04-03T09:35:30;93646.75;;;11.91
15701;BMP180;7950;42.744;23.174;2023-04-03T09:38:21;93646.53;;;12.11
15701;BMP180;7950;42.744;23.174;2023-04-03T09:41:06;93638.00;;;12.24
15701;BMP180;7950;42.744;23.174;2023-04-03T09:43:37;93636.38;;;12.28
15701;BMP180;7950;42.744;23.174;2023-04-03T09:46:29;93642.72;;;12.27
15701;BMP180;7950;42.744;23.174;2023-04-03T09:49:00;93626.88;;;12.32
15701;BMP180;7950;42.744;23.174;2023-04-03T09:51:36;93619.78;;;12.33
15701;BMP180;7950;42.744;23.174;2023-04-03T09:54:40;93617.94;;;12.33
15701;BMP180;7950;42.744;23.174;2023-04-03T09:57:13;93626.88;;;12.32
15701;BMP180;7950;42.744;23.174;2023-04-03T09:59:56;93611.00;;;12.42
15701;BMP180;7950;42.744;23.174;2023-04-03T10:02:36;93611.00;;;12.42
15701;BMP180;7950;42.744;23.174;2023-04-03T10:05:29;93612.50;;;12.48
15701;BMP180;7950;42.744;23.174;2023-04-03T10:08:23;93601.25;;;12.43
15701;BMP180;7950;42.744;23.174;2023-04-03T10:11:12;93603.16;;;12.37
15701;BMP180;7950;42.744;23.174;2023-04-03T10:13:53;93603.22;;;12.32
15701;BMP180;7950;42.744;23.174;2023-04-03T10:16:31;93604.22;;;12.36
15701;BMP180;7950;42.744;23.174;2023-04-03T10:19:30;93599.25;;;12.35
15701;BMP180;7950;42.744;23.174;2023-04-03T10:22:06;93600.97;;;12.44
15701;BMP180;7950;42.744;23.174;2023-04-03T10:24:57;93603.84;;;12.48
15701;BMP180;7950;42.744;23.174;2023-04-03T10:27:47;93597.28;;;12.45
15701;BMP180;7950;42.744;23.174;2023-04-03T10:30:32;93588.59;;;12.45
15701;BMP180;7950;42.744;23.174;2023-04-03T10:33:32;93582.94;;;12.56
15701;BMP180;7950;42.744;23.174;2023-04-03T10:36:12;93585.53;;;12.61
15701;BMP180;7950;42.744;23.174;2023-04-03T10:38:51;93588.09;;;12.66
15701;BMP180;7950;42.744;23.174;2023-04-03T10:41:35;93575.78;;;12.62
15701;BMP180;7950;42.744;23.174;2023-04-03T10:44:16;93563.84;;;12.69
15701;BMP180;7950;42.744;23.174;2023-04-03T10:46:52;93567.47;;;12.73
15701;BMP180;7950;42.744;23.174;2023-04-03T10:49:36;93569.63;;;12.71
15701;BMP180;7950;42.744;23.174;2023-04-03T10:52:31;93562.78;;;12.70
15701;BMP180;7950;42.744;23.174;2023-04-03T10:55:24;93556.00;;;12.64
15701;BMP180;7950;42.744;23.174;2023-04-03T10:57:56;93560.19;;;12.65
15701;BMP180;7950;42.744;23.174;2023-04-03T11:00:35;93552.81;;;12.67
15701;BMP180;7950;42.744;23.174;2023-04-03T11:03:13;93556.59;;;12.61
15701;BMP180;7950;42.744;23.174;2023-04-03T11:05:45;93550.53;;;12.61
15701;BMP180;7950;42.744;23.174;2023-04-03T11:08:25;93560.16;;;12.70
15701;BMP180;7950;42.744;23.174;2023-04-03T11:11:00;93552.31;;;12.65
15701;BMP180;7950;42.744;23.174;2023-04-03T11:13:36;93551.81;;;12.63
15701;BMP180;7950;42.744;23.174;2023-04-03T11:16:07;93556.00;;;12.64
15701;BMP180;7950;42.744;23.174;2023-04-03T11:18:46;93564.50;;;12.61
15701;BMP180;7950;42.744;23.174;2023-04-03T11:21:20;93555.53;;;12.62
15701;BMP180;7950;42.744;23.174;2023-04-03T11:23:53;93557.28;;;12.48
15701;BMP180;7950;42.744;23.174;2023-04-03T11:26:31;93555.94;;;12.51
15701;BMP180;7950;42.744;23.174;2023-04-03T11:29:09;93557.03;;;12.45
15701;BMP180;7950;42.744;23.174;2023-04-03T11:32:11;93545.66;;;12.31
15701;BMP180;7950;42.744;23.174;2023-04-03T11:34:48;93551.84;;;12.16
15701;BMP180;7950;42.744;23.174;2023-04-03T11:37:31;93560.41;;;12.03
15701;BMP180;7950;42.744;23.174;2023-04-03T11:40:07;93579.50;;;11.85
15701;BMP180;7950;42.744;23.174;2023-04-03T11:42:46;93565.81;;;11.60
15701;BMP180;7950;42.744;23.174;2023-04-03T11:45:35;93558.31;;;11.43
15701;BMP180;7950;42.744;23.174;2023-04-03T11:48:48;93577.34;;;11.30
15701;BMP180;7950;42.744;23.174;2023-04-03T11:51:42;93577.91;;;11.22
15701;BMP180;7950;42.744;23.174;2023-04-03T11:54:47;93581.69;;;11.11
15701;BMP180;7950;42.744;23.174;2023-04-03T11:58:04;93583.28;;;11.07
15701;BMP180;7950;42.744;23.174;2023-04-03T12:01:06;93585.94;;;10.97
15701;BMP180;7950;42.744;23.174;2023-04-03T12:04:06;93583.31;;;10.97
15701;BMP180;7950;42.744;23.174;2023-04-03T12:09:58;93587.91;;;10.77
15701;BMP180;7950;42.744;23.174;2023-04-03T12:12:39;93586.09;;;10.72
15701;BMP180;7950;42.744;23.174;2023-04-03T12:15:51;93573.03;;;10.67
15701;BMP180;7950;42.744;23.174;2023-04-03T12:18:57;93568.31;;;10.64
15701;BMP180;7950;42.744;23.174;2023-04-03T12:22:08;93561.00;;;10.56
15701;BMP180;7950;42.744;23.174;2023-04-03T12:24:39;93567.31;;;10.50
15701;BMP180;7950;42.744;23.174;2023-04-03T12:27:38;93568.13;;;10.46
15701;BMP180;7950;42.744;23.174;2023-04-03T12:30:23;93556.84;;;10.50
15701;BMP180;7950;42.744;23.174;2023-04-03T12:33:26;93546.38;;;10.45
15701;BMP180;7950;42.744;23.174;2023-04-03T12:36:07;93531.47;;;10.36
15701;BMP180;7950;42.744;23.174;2023-04-03T12:39:01;93537.50;;;10.31
15701;BMP180;7950;42.744;23.174;2023-04-03T12:41:42;93535.72;;;10.27
15701;BMP180;7950;42.744;23.174;2023-04-03T12:44:42;93543.34;;;10.18
15701;BMP180;7950;42.744;23.174;2023-04-03T12:47:27;93532.88;;;10.08
15701;BMP180;7950;42.744;23.174;2023-04-03T12:49:59;93531.06;;;10.04
15701;BMP180;7950;42.744;23.174;2023-04-03T12:52:36;93544.69;;;10.01
15701;BMP180;7950;42.744;23.174;2023-04-03T12:55:19;93528.19;;;9.90
15701;BMP180;7950;42.744;23.174;2023-04-03T12:57:49;93517.22;;;9.78
15701;BMP180;7950;42.744;23.174;2023-04-03T13:00:29;93518.06;;;9.69
15701;BMP180;7950;42.744;23.174;2023-04-03T13:03:01;93524.63;;;9.61
15701;BMP180;7950;42.744;23.174;2023-04-03T13:05:32;93532.00;;;9.39
15701;BMP180;7950;42.744;23.174;2023-04-03T13:08:06;93535.41;;;9.25
15701;BMP180;7950;42.744;23.174;2023-04-03T13:10:53;93535.13;;;9.21
15701;BMP180;7950;42.744;23.174;2023-04-03T13:13:23;93538.28;;;9.18
15701;BMP180;7950;42.744;23.174;2023-04-03T13:15:54;93537.75;;;9.11
15701;BMP180;7950;42.744;23.174;2023-04-03T13:18:30;93526.50;;;9.06
15701;BMP180;7950;42.744;23.174;2023-04-03T13:21:04;93522.06;;;9.01
15701;BMP180;7950;42.744;23.174;2023-04-03T13:23:38;93528.34;;;9.05
15701;BMP180;7950;42.744;23.174;2023-04-03T13:26:11;93527.78;;;9.03
15701;BMP180;7950;42.744;23.174;2023-04-03T13:28:40;93524.41;;;8.98
15701;BMP180;7950;42.744;23.174;2023-04-03T13:31:20;93515.78;;;8.97
15701;BMP180;7950;42.744;23.174;2023-04-03T13:33:58;93520.50;;;8.95
15701;BMP180;7950;42.744;23.174;2023-04-03T13:36:34;93531.72;;;8.90
15701;BMP180;7950;42.744;23.174;2023-04-03T13:39:07;93518.63;;;8.90
15701;BMP180;7950;42.744;23.174;2023-04-03T13:41:51;93521.25;;;8.85
15701;BMP180;7950;42.744;23.174;2023-04-03T13:44:41;93519.69;;;8.79
15701;BMP180;7950;42.744;23.174;2023-04-03T13:47:20;93523.31;;;8.73
15701;BMP180;7950;42.744;23.174;2023-04-03T13:50:04;93517.31;;;8.68
15701;BMP180;7950;42.744;23.174;2023-04-03T13:52:41;93516.78;;;8.66
15701;BMP180;7950;42.744;23.174;2023-04-03T13:55:21;93519.41;;;8.71
15701;BMP180;7950;42.744;23.174;2023-04-03T13:57:58;93528.81;;;8.72
15701;BMP180;7950;42.744;23.174;2023-04-03T14:00:36;93509.75;;;8.76
15701;BMP180;7950;42.744;23.174;2023-04-03T14:03:19;93493.81;;;8.73
15701;BMP180;7950;42.744;23.174;2023-04-03T14:05:50;93507.63;;;8.73
15701;BMP180;7950;42.744;23.174;2023-04-03T14:08:19;93511.56;;;8.81
15701;BMP180;7950;42.744;23.174;2023-04-03T14:11:02;93500.84;;;8.82
15701;BMP180;7950;42.744;23.174;2023-04-03T14:13:32;93496.94;;;8.85
15701;BMP180;7950;42.744;23.174;2023-04-03T14:16:01;93503.47;;;8.82
15701;BMP180;7950;42.744;23.174;2023-04-03T14:18:42;93493.53;;;8.79
15701;BMP180;7950;42.744;23.174;2023-04-03T14:21:13;93492.75;;;8.79
15701;BMP180;7950;42.744;23.174;2023-04-03T14:23:42;93493.25;;;8.76
15701;BMP180;7950;42.744;23.174;2023-04-03T14:26:13;93491.69;;;8.75
15701;BMP180;7950;42.744;23.174;2023-04-03T14:28:47;93482.03;;;8.70
15701;BMP180;7950;42.744;23.174;2023-04-03T14:31:17;93484.41;;;8.77
15701;BMP180;7950;42.744;23.174;2023-04-03T14:33:47;93493.53;;;8.79
15701;BMP180;7950;42.744;23.174;2023-04-03T14:36:19;93481.22;;;8.85
15701;BMP180;7950;42.744;23.174;2023-04-03T14:38:50;65556.66;;;-139.30
15701;BMP180;7950;42.744;23.174;2023-04-03T14:41:22;65556.66;;;-139.30
15701;BMP180;7950;42.744;23.174;2023-04-03T14:43:53;65556.66;;;-139.30
15701;BMP180;7950;42.744;23.174;2023-04-03T14:46:26;65556.66;;;-139.30
15701;BMP180;7950;42.744;23.174;2023-04-03T14:49:19;65556.66;;;-139.30
15701;BMP180;7950;42.744;23.174;2023-04-03T14:51:48;65556.66;;;-139.30
15701;BMP180;7950;42.744;23.174;2023-04-03T14:54:20;65556.66;;;-139.30
15701;BMP180;7950;42.744;23.174;2023-04-03T14:56:54;65556.66;;;-139.30
15701;BMP180;7950;42.744;23.174;2023-04-03T14:59:26;65556.66;;;-139.30
15701;BMP180;7950;42.744;23.174;2023-04-03T15:01:54;65556.66;;;-139.30
15701;BMP180;7950;42.744;23.174;2023-04-03T15:04:23;65556.66;;;-139.30